createdAt,value
2023-03-03T00:01:43.937Z,6.20
2023-03-03T00:04:11.468Z,8.00
2023-03-03T00:06:39.386Z,8.27
2023-03-03T00:09:08.289Z,6.10
2023-03-03T00:11:35.887Z,6.80
2023-03-03T00:14:03.451Z,4.70
2023-03-03T00:16:33.520Z,6.57
2023-03-03T00:19:01.209Z,5.87
2023-03-03T00:21:31.257Z,7.63
2023-03-03T00:24:19.229Z,6.57
2023-03-03T00:26:47.876Z,5.87
2023-03-03T00:29:28.396Z,7.27
2023-03-03T00:31:56.345Z,7.47
2023-03-03T00:34:27.133Z,6.10
2023-03-03T00:36:55.979Z,6.23
2023-03-03T00:39:29.215Z,5.83
2023-03-03T00:41:57.232Z,6.20
2023-03-03T00:44:43.706Z,6.43
2023-03-03T00:47:20.245Z,6.73
2023-03-03T00:49:47.803Z,5.67
2023-03-03T00:52:18.282Z,10.03
2023-03-03T00:54:47.324Z,5.63
2023-03-03T00:57:14.911Z,6.87
2023-03-03T00:59:42.445Z,6.07
2023-03-03T01:02:10.126Z,6.77
2023-03-03T01:04:37.858Z,6.20
2023-03-03T01:07:05.433Z,7.83
2023-03-03T01:09:33.001Z,6.97
2023-03-03T01:12:01.957Z,5.90
2023-03-03T01:14:29.549Z,8.13
2023-03-03T01:16:57.227Z,5.53
2023-03-03T01:19:24.799Z,7.30
2023-03-03T01:21:52.637Z,6.90
2023-03-03T01:24:20.157Z,7.53
2023-03-03T01:26:47.855Z,6.93
2023-03-03T01:29:16.745Z,6.20
2023-03-03T01:31:44.546Z,9.40
2023-03-03T01:34:12.168Z,8.50
2023-03-03T01:36:39.853Z,7.73
2023-03-03T01:39:07.483Z,9.37
2023-03-03T01:41:35.010Z,7.90
2023-03-03T01:44:02.828Z,8.50
2023-03-03T01:46:43.821Z,8.80
2023-03-03T01:49:14.566Z,6.63
2023-03-03T01:51:48.452Z,7.63
2023-03-03T01:54:19.925Z,6.50
2023-03-03T01:56:48.010Z,6.10
2023-03-03T01:59:18.392Z,6.50
2023-03-03T02:01:48.516Z,8.83
2023-03-03T02:04:16.498Z,6.63
2023-03-03T02:06:48.749Z,7.63
2023-03-03T02:09:20.163Z,8.13
2023-03-03T02:11:50.375Z,8.33
2023-03-03T02:14:17.957Z,7.63
2023-03-03T02:16:47.021Z,7.77
2023-03-03T02:19:20.461Z,6.90
2023-03-03T02:21:48.011Z,8.33
2023-03-03T02:24:19.622Z,6.93
2023-03-03T02:26:49.044Z,7.50
2023-03-03T02:29:16.663Z,6.97
2023-03-03T02:31:44.273Z,7.80
2023-03-03T02:34:11.986Z,7.80
2023-03-03T02:36:41.002Z,8.67
2023-03-03T02:39:11.509Z,7.07
2023-03-03T02:41:42.723Z,6.27
2023-03-03T02:44:13.299Z,5.77
2023-03-03T02:46:43.067Z,5.63
2023-03-03T02:49:12.650Z,8.37
2023-03-03T02:51:40.506Z,6.83
2023-03-03T02:54:09.342Z,7.87
2023-03-03T02:56:37.542Z,8.33
2023-03-03T02:59:05.308Z,7.93
2023-03-03T03:01:37.077Z,8.90
2023-03-03T03:04:08.348Z,6.33
2023-03-03T03:06:36.920Z,7.03
2023-03-03T03:09:04.983Z,9.17
2023-03-03T03:11:32.925Z,7.40
2023-03-03T03:14:00.547Z,7.00
2023-03-03T03:16:28.326Z,7.97
2023-03-03T03:18:57.335Z,6.27
2023-03-03T03:21:24.878Z,7.70
2023-03-03T03:23:52.515Z,7.63
2023-03-03T03:26:21.134Z,7.20
2023-03-03T03:28:48.979Z,8.50
2023-03-03T03:31:16.770Z,7.47
2023-03-03T03:33:44.539Z,9.37
2023-03-03T03:36:13.558Z,8.57
2023-03-03T03:38:41.168Z,7.93
2023-03-03T03:41:09.077Z,9.67
2023-03-03T03:43:37.028Z,9.03
2023-03-03T03:46:04.920Z,9.53
2023-03-03T03:48:32.656Z,10.47
2023-03-03T03:51:00.194Z,9.77
2023-03-03T03:53:29.061Z,8.23
2023-03-03T03:55:56.707Z,8.50
2023-03-03T03:58:24.230Z,9.43
2023-03-03T04:00:51.815Z,13.67
2023-03-03T04:03:19.520Z,9.83
2023-03-03T04:05:47.117Z,11.13
2023-03-03T04:08:14.704Z,14.00
2023-03-03T04:10:43.848Z,10.53
2023-03-03T04:13:11.492Z,11.20
2023-03-03T04:15:39.044Z,11.87
2023-03-03T04:18:06.696Z,13.70
2023-03-03T04:20:34.356Z,14.27
2023-03-03T04:23:02.052Z,10.30
2023-03-03T04:25:29.588Z,16.57
2023-03-03T04:27:58.517Z,13.23
2023-03-03T04:30:26.927Z,12.47
2023-03-03T04:32:54.645Z,16.07
2023-03-03T04:35:22.304Z,13.70
2023-03-03T04:37:49.890Z,14.90
2023-03-03T04:40:20.672Z,13.27
2023-03-03T04:42:48.310Z,15.30
2023-03-03T04:45:17.518Z,15.73
2023-03-03T04:47:45.095Z,15.03
2023-03-03T04:50:12.914Z,15.30
2023-03-03T04:52:40.463Z,13.43
2023-03-03T04:55:10.588Z,15.90
2023-03-03T04:57:38.404Z,12.57
2023-03-03T05:00:07.285Z,12.80
2023-03-03T05:02:36.325Z,15.17
2023-03-03T05:05:04.089Z,17.67
2023-03-03T05:07:31.784Z,17.07
2023-03-03T05:09:59.300Z,18.97
2023-03-03T05:12:26.957Z,17.67
2023-03-03T05:14:54.522Z,19.53
2023-03-03T05:17:22.105Z,14.93
2023-03-03T05:19:51.059Z,15.93
2023-03-03T05:22:18.606Z,17.53
2023-03-03T05:24:49.006Z,18.47
2023-03-03T05:27:16.697Z,16.20
2023-03-03T05:29:44.460Z,18.70
2023-03-03T05:32:12.283Z,18.77
2023-03-03T05:34:40.073Z,18.87
2023-03-03T05:37:09.072Z,17.23
2023-03-03T05:39:39.616Z,21.60
2023-03-03T05:42:07.389Z,18.70
2023-03-03T05:44:34.947Z,19.57
2023-03-03T05:47:02.478Z,20.93
2023-03-03T05:49:29.990Z,18.93
2023-03-03T05:51:59.112Z,20.53
2023-03-03T05:54:28.068Z,18.90
2023-03-03T05:56:57.220Z,21.57
2023-03-03T05:59:24.811Z,19.17
2023-03-03T06:01:52.389Z,19.27
2023-03-03T06:04:20.009Z,18.37
2023-03-03T06:06:47.564Z,19.97
2023-03-03T06:09:15.523Z,22.60
2023-03-03T06:11:44.478Z,22.43
2023-03-03T06:14:12.110Z,20.30
2023-03-03T06:16:39.690Z,22.30
2023-03-03T06:19:07.271Z,23.97
2023-03-03T06:21:34.870Z,20.27
2023-03-03T06:24:02.406Z,23.70
2023-03-03T06:26:30.005Z,20.53
2023-03-03T06:28:59.028Z,22.53
2023-03-03T06:31:27.135Z,22.33
2023-03-03T06:33:55.016Z,21.77
2023-03-03T06:36:23.512Z,20.80
2023-03-03T06:38:51.202Z,21.63
2023-03-03T06:41:18.771Z,20.20
2023-03-03T06:43:46.353Z,25.30
2023-03-03T06:46:15.298Z,28.50
2023-03-03T06:48:42.914Z,27.47
2023-03-03T06:51:21.730Z,25.60
2023-03-03T06:53:49.813Z,25.27
2023-03-03T06:56:18.352Z,23.87
2023-03-03T06:58:45.909Z,24.07
2023-03-03T07:01:18.070Z,23.13
2023-03-03T07:03:45.804Z,24.93
2023-03-03T07:06:22.473Z,25.50
2023-03-03T07:08:50.421Z,24.77
2023-03-03T07:11:20.484Z,24.37
2023-03-03T07:13:49.394Z,24.63
2023-03-03T07:16:20.342Z,24.40
2023-03-03T07:18:51.295Z,25.43
2023-03-03T07:21:20.460Z,23.27
2023-03-03T07:23:49.708Z,25.73
2023-03-03T07:26:19.433Z,25.60
2023-03-03T07:28:54.076Z,22.80
2023-03-03T07:31:28.745Z,20.77
2023-03-03T07:33:56.982Z,23.47
2023-03-03T07:36:28.613Z,23.17
2023-03-03T07:38:57.602Z,20.27
2023-03-03T07:41:25.226Z,23.03
2023-03-03T07:43:54.917Z,20.50
2023-03-03T07:46:36.126Z,21.37
2023-03-03T07:49:11.693Z,24.77
2023-03-03T07:51:42.051Z,24.13
2023-03-03T07:54:31.856Z,26.03
2023-03-03T07:57:04.065Z,24.07
2023-03-03T07:59:32.152Z,31.17
2023-03-03T08:02:01.489Z,29.83
2023-03-03T08:04:31.042Z,30.60
2023-03-03T08:06:59.386Z,32.00
2023-03-03T08:09:48.466Z,31.90
2023-03-03T08:12:33.010Z,31.70
2023-03-03T08:15:16.357Z,34.30
2023-03-03T08:17:46.032Z,30.73
2023-03-03T08:20:38.580Z,34.47
2023-03-03T08:23:06.180Z,38.27
2023-03-03T08:25:33.772Z,38.70
2023-03-03T08:28:01.322Z,37.90
2023-03-03T08:30:28.973Z,34.97
2023-03-03T08:32:57.936Z,34.37
2023-03-03T08:35:25.583Z,31.87
2023-03-03T08:37:53.100Z,38.77
2023-03-03T08:40:20.712Z,35.23
2023-03-03T08:42:48.938Z,37.00
2023-03-03T08:45:16.763Z,33.37
2023-03-03T08:47:44.792Z,37.70
2023-03-03T08:50:14.564Z,40.57
2023-03-03T08:52:42.229Z,34.23
2023-03-03T08:55:10.211Z,32.00
2023-03-03T08:57:39.043Z,31.67
2023-03-03T09:00:09.102Z,38.57
2023-03-03T09:02:36.705Z,37.57
2023-03-03T09:05:04.724Z,32.13
2023-03-03T09:07:33.733Z,33.27
2023-03-03T09:10:01.402Z,33.00
2023-03-03T09:12:31.498Z,33.70
2023-03-03T09:15:01.701Z,36.30
2023-03-03T09:17:31.837Z,36.93
2023-03-03T09:20:02.815Z,34.30
2023-03-03T09:22:30.450Z,36.83
2023-03-03T09:25:00.413Z,36.47
2023-03-03T09:27:30.533Z,37.43
2023-03-03T09:29:58.738Z,36.67
2023-03-03T09:32:33.117Z,33.37
2023-03-03T09:35:01.282Z,35.47
2023-03-03T09:37:32.415Z,36.60
2023-03-03T09:40:01.412Z,37.20
2023-03-03T09:42:42.919Z,34.47
2023-03-03T09:45:37.041Z,34.37
2023-03-03T09:48:24.097Z,33.17
2023-03-03T09:51:00.682Z,32.07
2023-03-03T09:53:38.656Z,35.77
2023-03-03T09:56:12.422Z,32.73
2023-03-03T09:58:53.039Z,32.90
2023-03-03T10:01:35.136Z,30.90
2023-03-03T10:04:15.338Z,28.80
2023-03-03T10:06:46.912Z,30.30
2023-03-03T10:09:48.346Z,29.93
2023-03-03T10:12:22.513Z,33.43
2023-03-03T10:15:08.449Z,30.90
2023-03-03T10:17:45.687Z,29.57
2023-03-03T10:20:49.195Z,36.93
2023-03-03T10:23:23.420Z,30.90
2023-03-03T10:25:55.508Z,30.90
2023-03-03T10:28:53.698Z,29.80
2023-03-03T10:31:29.349Z,30.67
2023-03-03T10:34:00.381Z,32.30
2023-03-03T10:36:46.626Z,29.77
2023-03-03T10:39:26.857Z,27.67
2023-03-03T10:42:08.360Z,29.87
2023-03-03T10:44:56.923Z,27.33
2023-03-03T10:47:48.569Z,26.83
2023-03-03T10:50:22.613Z,29.87
2023-03-03T10:52:53.486Z,27.13
2023-03-03T10:55:39.942Z,24.83
2023-03-03T10:58:29.299Z,26.07
2023-03-03T11:01:07.102Z,26.87
2023-03-03T11:03:43.468Z,29.40
2023-03-03T11:06:16.290Z,24.20
2023-03-03T11:08:47.533Z,26.57
2023-03-03T11:11:18.370Z,27.27
2023-03-03T11:13:49.413Z,28.67
2023-03-03T11:16:32.910Z,27.23
2023-03-03T11:19:11.402Z,26.33
2023-03-03T11:21:43.111Z,31.83
2023-03-03T11:24:24.768Z,29.30
2023-03-03T11:27:02.445Z,29.17
2023-03-03T11:29:43.478Z,29.37
2023-03-03T11:32:22.278Z,29.23
2023-03-03T11:34:57.852Z,25.13
2023-03-03T11:37:31.002Z,27.70
2023-03-03T11:40:03.877Z,24.03
2023-03-03T11:42:38.561Z,25.47
2023-03-03T11:45:14.101Z,28.37
2023-03-03T11:47:48.556Z,25.83
2023-03-03T11:50:20.124Z,23.17
2023-03-03T11:52:53.237Z,23.33
2023-03-03T11:55:25.017Z,24.83
2023-03-03T11:57:57.142Z,26.00
2023-03-03T12:00:32.563Z,25.73
2023-03-03T12:03:13.223Z,26.77
2023-03-03T12:05:48.505Z,25.40
2023-03-03T12:08:24.916Z,26.97
2023-03-03T12:10:58.513Z,23.87
2023-03-03T12:13:31.351Z,25.67
2023-03-03T12:16:06.714Z,23.20
2023-03-03T12:19:03.329Z,28.10
2023-03-03T12:21:42.576Z,23.00
2023-03-03T12:24:20.710Z,23.17
2023-03-03T12:26:52.845Z,23.63
2023-03-03T12:29:28.658Z,24.47
2023-03-03T12:32:06.067Z,22.77
2023-03-03T12:34:40.121Z,23.33
2023-03-03T12:37:17.019Z,20.73
2023-03-03T12:39:55.016Z,21.40
2023-03-03T12:42:30.360Z,19.73
2023-03-03T12:45:06.486Z,20.87
2023-03-03T12:47:38.813Z,21.27
2023-03-03T12:50:24.617Z,19.80
2023-03-03T12:52:56.791Z,20.03
2023-03-03T12:55:32.111Z,18.83
2023-03-03T12:58:05.559Z,19.20
2023-03-03T13:00:44.840Z,20.03
2023-03-03T13:03:28.348Z,17.53
2023-03-03T13:06:07.548Z,21.23
2023-03-03T13:08:45.978Z,18.07
2023-03-03T13:11:25.513Z,18.37
2023-03-03T13:13:55.219Z,20.70
2023-03-03T13:16:40.345Z,21.13
2023-03-03T13:19:10.963Z,20.93
2023-03-03T13:21:42.591Z,19.27
2023-03-03T13:24:17.652Z,18.17
2023-03-03T13:26:49.057Z,20.20
2023-03-03T13:29:21.436Z,17.93
2023-03-03T13:31:50.884Z,18.13
2023-03-03T13:34:26.765Z,17.90
2023-03-03T13:36:59.303Z,18.10
2023-03-03T13:39:29.379Z,16.57
2023-03-03T13:41:58.531Z,16.03
2023-03-03T13:44:31.199Z,16.47
2023-03-03T13:47:09.956Z,18.97
2023-03-03T13:49:47.700Z,17.60
2023-03-03T13:52:22.141Z,18.37
2023-03-03T13:54:56.257Z,19.70
2023-03-03T13:57:39.816Z,17.40
2023-03-03T14:00:17.639Z,16.20
2023-03-03T14:02:55.459Z,16.17
2023-03-03T14:05:28.114Z,17.47
2023-03-03T14:08:00.341Z,15.13
2023-03-03T14:10:31.537Z,14.73
2023-03-03T14:13:04.504Z,14.63
2023-03-03T14:15:34.391Z,15.23
2023-03-03T14:18:15.411Z,14.67
2023-03-03T14:20:46.235Z,16.50
2023-03-03T14:23:18.483Z,15.27
2023-03-03T14:25:54.303Z,15.73
2023-03-03T14:28:23.748Z,15.40
2023-03-03T14:30:55.149Z,13.77
2023-03-03T14:33:26.142Z,15.67
2023-03-03T14:36:06.892Z,14.23
2023-03-03T14:38:41.544Z,15.07
2023-03-03T14:41:16.035Z,17.13
2023-03-03T14:43:45.297Z,17.27
2023-03-03T14:46:33.506Z,15.63
2023-03-03T14:49:03.078Z,12.97
2023-03-03T14:51:34.655Z,13.17
2023-03-03T14:54:09.604Z,12.40
2023-03-03T14:56:39.307Z,13.20
2023-03-03T14:59:19.234Z,12.10
2023-03-03T15:01:47.840Z,11.67
2023-03-03T15:04:26.036Z,13.57
2023-03-03T15:06:54.847Z,13.63
2023-03-03T15:09:36.541Z,10.90
2023-03-03T15:12:06.864Z,13.67
2023-03-03T15:14:38.412Z,14.67
2023-03-03T15:17:27.126Z,12.47
2023-03-03T15:20:14.721Z,14.27
2023-03-03T15:22:48.681Z,12.23
2023-03-03T15:25:41.819Z,10.73
2023-03-03T15:28:23.454Z,10.97
2023-03-03T15:30:54.482Z,9.40
2023-03-03T15:33:30.417Z,9.57
2023-03-03T15:36:04.321Z,9.63
2023-03-03T15:38:42.001Z,8.60
2023-03-03T15:41:27.503Z,9.07
2023-03-03T15:44:03.706Z,9.27
2023-03-03T15:46:40.257Z,7.63
2023-03-03T15:49:17.925Z,9.60
2023-03-03T15:52:03.178Z,9.10
2023-03-03T15:54:37.438Z,9.93
2023-03-03T15:57:16.245Z,8.30
2023-03-03T16:00:04.492Z,6.93
2023-03-03T16:02:40.476Z,6.70
2023-03-03T16:05:16.286Z,7.23
2023-03-03T16:07:51.490Z,6.43
2023-03-03T16:10:26.016Z,8.83
2023-03-03T16:13:01.242Z,5.13
2023-03-03T16:15:38.220Z,6.30
2023-03-03T16:18:14.303Z,6.67
2023-03-03T16:20:47.120Z,5.33
2023-03-03T16:23:31.757Z,4.07
2023-03-03T16:26:04.987Z,4.43
2023-03-03T16:28:44.710Z,5.57
2023-03-03T16:31:14.934Z,4.73
2023-03-03T16:33:45.442Z,4.63
2023-03-03T16:36:19.928Z,10.67
2023-03-03T16:38:52.254Z,18.37
2023-03-03T16:41:22.825Z,20.90
2023-03-03T16:44:02.583Z,21.63
2023-03-03T16:46:33.610Z,23.90
2023-03-03T16:49:06.117Z,23.30
2023-03-03T16:51:40.561Z,24.83
2023-03-03T16:54:10.561Z,25.97
2023-03-03T16:56:44.292Z,28.50
2023-03-03T16:59:38.554Z,31.03
2023-03-03T17:02:27.160Z,28.47
2023-03-03T17:04:59.239Z,33.20
2023-03-03T17:07:41.174Z,27.63
2023-03-03T17:10:23.027Z,27.20
2023-03-03T17:13:10.349Z,27.37
2023-03-03T17:15:45.636Z,30.40
2023-03-03T17:18:16.039Z,26.17
2023-03-03T17:20:49.340Z,26.40
2023-03-03T17:23:31.499Z,31.83
2023-03-03T17:26:06.866Z,32.33
2023-03-03T17:28:43.945Z,33.77
2023-03-03T17:31:18.399Z,32.90
2023-03-03T17:34:16.092Z,34.03
2023-03-03T17:36:54.827Z,32.67
2023-03-03T17:39:42.633Z,31.50
2023-03-03T17:42:17.346Z,31.80
2023-03-03T17:44:51.883Z,34.83
2023-03-03T17:47:31.358Z,34.20
2023-03-03T17:50:09.554Z,33.03
2023-03-03T17:52:59.489Z,32.17
2023-03-03T17:55:34.619Z,33.73
2023-03-03T17:58:14.453Z,33.00
2023-03-03T18:00:51.743Z,31.07
2023-03-03T18:03:37.694Z,35.13
2023-03-03T18:06:27.271Z,33.40
2023-03-03T18:09:18.238Z,33.90
2023-03-03T18:11:58.090Z,31.53
2023-03-03T18:14:46.872Z,30.30
2023-03-03T18:17:31.382Z,30.37
2023-03-03T18:20:13.200Z,34.90
2023-03-03T18:22:45.478Z,35.93
2023-03-03T18:25:15.180Z,34.70
2023-03-03T18:27:43.566Z,40.13
2023-03-03T18:30:35.150Z,37.97
2023-03-03T18:33:08.564Z,32.03
2023-03-03T18:35:38.904Z,31.87
2023-03-03T18:38:30.968Z,31.87
2023-03-03T18:40:59.964Z,30.80
2023-03-03T18:43:55.625Z,36.47
2023-03-03T18:46:51.530Z,34.30
2023-03-03T18:49:19.632Z,33.00
2023-03-03T18:51:52.893Z,32.13
2023-03-03T18:54:31.015Z,37.10
2023-03-03T18:57:17.063Z,32.63
2023-03-03T18:59:56.735Z,31.83
2023-03-03T19:02:46.256Z,33.53
2023-03-03T19:05:20.426Z,34.27
2023-03-03T19:07:53.325Z,34.60
2023-03-03T19:10:57.367Z,35.70
2023-03-03T19:13:46.748Z,36.73
2023-03-03T19:16:36.583Z,33.30
2023-03-03T19:19:09.872Z,36.60
2023-03-03T19:21:38.916Z,36.90
2023-03-03T19:24:27.224Z,38.27
2023-03-03T19:27:00.192Z,37.10
2023-03-03T19:29:51.753Z,39.77
2023-03-03T19:32:32.177Z,43.67
2023-03-03T19:35:11.117Z,39.10
2023-03-03T19:37:47.157Z,45.13
2023-03-03T19:40:23.059Z,37.10
2023-03-03T19:42:58.636Z,41.47
2023-03-03T19:45:35.510Z,42.67
2023-03-03T19:48:07.734Z,40.37
2023-03-03T19:50:45.159Z,38.97
2023-03-03T19:53:22.635Z,39.60
2023-03-03T19:56:01.688Z,43.73
2023-03-03T19:58:32.769Z,46.00
2023-03-03T20:01:08.283Z,47.13
2023-03-03T20:03:49.717Z,43.33
2023-03-03T20:06:27.161Z,48.33
2023-03-03T20:09:00.671Z,39.67
2023-03-03T20:11:47.905Z,44.40
2023-03-03T20:14:28.771Z,44.57
2023-03-03T20:17:01.241Z,44.30
2023-03-03T20:19:41.176Z,45.03
2023-03-03T20:22:10.632Z,43.93
2023-03-03T20:24:47.740Z,45.87
2023-03-03T20:27:18.798Z,47.60
2023-03-03T20:30:08.536Z,45.00
2023-03-03T20:32:59.133Z,46.97
2023-03-03T20:35:33.857Z,52.97
2023-03-03T20:38:10.121Z,51.57
2023-03-03T20:40:41.317Z,53.17
2023-03-03T20:43:20.768Z,46.43
2023-03-03T20:45:57.308Z,48.50
2023-03-03T20:48:35.157Z,49.63
2023-03-03T20:51:06.879Z,54.33
2023-03-03T20:53:42.058Z,52.30
2023-03-03T20:56:12.900Z,50.23
2023-03-03T20:58:53.869Z,47.87
2023-03-03T21:01:27.413Z,51.30
2023-03-03T21:03:56.634Z,54.03
2023-03-03T21:06:25.478Z,47.07
2023-03-03T21:08:54.358Z,51.93
2023-03-03T21:11:23.214Z,52.80
2023-03-03T21:13:54.197Z,54.50
2023-03-03T21:16:32.846Z,56.73
2023-03-03T21:19:02.992Z,53.43
2023-03-03T21:21:32.782Z,60.87
2023-03-03T21:24:00.434Z,57.20
2023-03-03T21:26:52.466Z,52.77
2023-03-03T21:29:24.179Z,55.73
2023-03-03T21:31:53.357Z,60.50
2023-03-03T21:34:24.482Z,57.37
2023-03-03T21:36:52.795Z,60.20
2023-03-03T21:39:22.846Z,60.87
2023-03-03T21:41:58.465Z,62.83
2023-03-03T21:44:41.545Z,67.60
2023-03-03T21:47:10.668Z,62.10
2023-03-03T21:49:41.770Z,65.43
2023-03-03T21:52:09.716Z,66.43
2023-03-03T21:54:37.784Z,67.70
2023-03-03T21:57:05.628Z,69.40
2023-03-03T21:59:34.638Z,65.80
2023-03-03T22:02:02.177Z,70.73
2023-03-03T22:04:29.779Z,62.50
2023-03-03T22:06:57.650Z,66.33
2023-03-03T22:09:25.271Z,66.47
2023-03-03T22:11:52.869Z,65.67
2023-03-03T22:14:20.445Z,69.47
2023-03-03T22:16:49.297Z,68.57
2023-03-03T22:19:16.819Z,67.17
2023-03-03T22:21:44.574Z,67.30
2023-03-03T22:24:12.912Z,75.20
2023-03-03T22:26:40.549Z,74.10
2023-03-03T22:29:08.203Z,73.17
2023-03-03T22:31:35.862Z,68.73
2023-03-03T22:34:05.291Z,71.63
2023-03-03T22:36:33.163Z,74.43
2023-03-03T22:39:02.066Z,71.03
2023-03-03T22:41:30.166Z,71.20
2023-03-03T22:43:58.431Z,72.30
2023-03-03T22:46:26.670Z,73.63
2023-03-03T22:48:55.441Z,72.13
2023-03-03T22:51:24.652Z,68.27
2023-03-03T22:53:52.183Z,67.80
2023-03-03T22:56:19.788Z,73.63
2023-03-03T22:58:47.482Z,68.70
2023-03-03T23:01:15.084Z,68.13
2023-03-03T23:03:42.663Z,67.23
2023-03-03T23:06:10.240Z,70.40
2023-03-03T23:08:39.234Z,70.57
2023-03-03T23:11:06.798Z,68.37
2023-03-03T23:13:35.247Z,64.47
2023-03-03T23:16:02.995Z,67.13
2023-03-03T23:18:30.740Z,67.77
2023-03-03T23:20:58.450Z,71.13
2023-03-03T23:23:26.013Z,64.97
2023-03-03T23:25:54.886Z,64.13
2023-03-03T23:28:22.400Z,62.80
2023-03-03T23:30:52.093Z,62.47
2023-03-03T23:33:19.919Z,59.00
2023-03-03T23:35:48.875Z,68.60
2023-03-03T23:38:17.653Z,72.77
2023-03-03T23:40:46.674Z,60.07
2023-03-03T23:43:15.930Z,64.57
2023-03-03T23:45:43.509Z,65.87
2023-03-03T23:48:11.373Z,65.27
2023-03-03T23:50:39.270Z,65.27
2023-03-03T23:53:07.303Z,58.97
2023-03-03T23:55:34.970Z,60.33
2023-03-03T23:58:02.579Z,64.63
